createdAt,value
2019-03-06T00:02:13.776Z,99.90
2019-03-06T00:07:14.967Z,99.90
2019-03-06T00:12:16.077Z,99.90
2019-03-06T00:17:45.106Z,99.90
2019-03-06T00:22:46.496Z,99.90
2019-03-06T00:27:47.704Z,99.90
2019-03-06T00:32:48.824Z,99.90
2019-03-06T00:37:50.032Z,99.90
2019-03-06T00:42:54.331Z,99.90
2019-03-06T00:47:55.535Z,99.90
2019-03-06T00:52:56.758Z,99.90
2019-03-06T00:57:57.913Z,99.90
2019-03-06T01:02:59.056Z,99.90
2019-03-06T01:08:00.693Z,99.90
2019-03-06T01:13:01.881Z,99.90
2019-03-06T01:18:03.106Z,99.90
2019-03-06T01:23:04.200Z,99.90
2019-03-06T01:28:05.301Z,99.90
2019-03-06T01:33:08.331Z,99.90
2019-03-06T01:38:11.511Z,99.90
2019-03-06T01:43:23.564Z,99.90
2019-03-06T01:48:24.758Z,99.90
2019-03-06T01:53:25.992Z,99.90
2019-03-06T01:58:27.083Z,99.90
2019-03-06T02:03:28.240Z,99.90
2019-03-06T02:08:29.341Z,99.90
2019-03-06T02:13:30.407Z,99.90
2019-03-06T02:18:31.691Z,99.90
2019-03-06T02:23:32.900Z,99.90
2019-03-06T02:28:33.991Z,99.90
2019-03-06T02:33:35.093Z,99.90
2019-03-06T02:38:36.189Z,99.90
2019-03-06T02:43:37.288Z,99.90
2019-03-06T02:48:38.376Z,99.90
2019-03-06T02:53:39.497Z,99.90
2019-03-06T02:59:00.896Z,99.90
2019-03-06T03:04:10.123Z,99.90
2019-03-06T03:09:16.239Z,99.90
2019-03-06T03:14:17.363Z,99.90
2019-03-06T03:19:18.544Z,99.90
2019-03-06T03:24:19.633Z,99.90
2019-03-06T03:29:20.830Z,99.90
2019-03-06T03:34:21.991Z,99.90
2019-03-06T03:39:23.420Z,99.90
2019-03-06T03:44:24.523Z,99.90
2019-03-06T03:49:27.814Z,99.90
2019-03-06T03:54:28.629Z,99.90
2019-03-06T03:59:29.815Z,99.90
2019-03-06T04:04:30.925Z,99.90
2019-03-06T04:09:32.033Z,99.90
2019-03-06T04:14:33.328Z,99.90
2019-03-06T04:19:34.446Z,99.90
2019-03-06T04:24:35.540Z,99.90
2019-03-06T04:29:36.619Z,99.90
2019-03-06T04:34:37.719Z,99.90
2019-03-06T04:39:38.922Z,99.90
2019-03-06T04:44:40.015Z,99.90
2019-03-06T04:49:41.102Z,99.90
2019-03-06T04:54:42.210Z,99.90
2019-03-06T04:59:43.303Z,99.90
2019-03-06T05:04:44.495Z,99.90
2019-03-06T05:09:45.591Z,99.90
2019-03-06T05:14:46.690Z,99.90
2019-03-06T05:19:47.800Z,99.90
2019-03-06T05:24:48.909Z,99.90
2019-03-06T05:29:50.011Z,99.90
2019-03-06T05:34:51.398Z,99.90
2019-03-06T05:39:52.494Z,99.90
2019-03-06T05:44:53.887Z,99.90
2019-03-06T05:49:54.981Z,99.90
2019-03-06T05:54:56.097Z,99.90
2019-03-06T05:59:57.174Z,99.90
2019-03-06T06:04:58.272Z,99.90
2019-03-06T06:09:59.379Z,99.90
2019-03-06T06:15:00.460Z,99.90
2019-03-06T06:20:02.396Z,99.90
2019-03-06T06:25:03.900Z,99.90
2019-03-06T06:30:08.701Z,99.90
2019-03-06T06:35:11.187Z,99.90
2019-03-06T06:40:13.294Z,99.90
2019-03-06T06:45:15.205Z,99.90
2019-03-06T06:50:16.296Z,99.90
2019-03-06T06:55:39.179Z,99.90
2019-03-06T07:00:58.296Z,99.90
2019-03-06T07:06:01.307Z,99.90
2019-03-06T07:11:04.310Z,99.90
2019-03-06T07:16:13.460Z,99.90
2019-03-06T07:21:34.742Z,99.90
2019-03-06T07:26:49.773Z,99.90
2019-03-06T07:31:55.495Z,99.90
2019-03-06T07:37:07.536Z,99.90
2019-03-06T07:42:13.507Z,99.90
2019-03-06T07:47:28.516Z,99.90
2019-03-06T07:52:34.292Z,99.90
2019-03-06T07:57:55.960Z,99.90
2019-03-06T08:03:00.575Z,99.90
2019-03-06T08:08:01.680Z,97.70
2019-03-06T08:13:04.690Z,97.00
2019-03-06T08:18:08.103Z,97.20
2019-03-06T08:23:17.151Z,93.90
2019-03-06T08:28:18.448Z,87.00
2019-03-06T08:33:19.556Z,74.70
2019-03-06T08:38:20.651Z,69.60
2019-03-06T08:43:21.741Z,63.40
2019-03-06T08:48:24.945Z,62.30
2019-03-06T08:53:27.972Z,62.30
2019-03-06T08:58:31.371Z,59.60
2019-03-06T09:03:52.895Z,58.80
2019-03-06T09:08:55.905Z,60.50
2019-03-06T09:14:17.005Z,60.60
2019-03-06T09:19:29.231Z,59.50
2019-03-06T09:24:32.228Z,55.00
2019-03-06T09:29:44.291Z,52.30
2019-03-06T09:34:50.057Z,50.60
2019-03-06T09:40:08.205Z,48.70
2019-03-06T09:45:17.424Z,45.80
2019-03-06T09:50:39.050Z,45.50
2019-03-06T09:55:42.367Z,45.10
2019-03-06T10:01:00.825Z,44.20
2019-03-06T10:06:15.661Z,44.90
2019-03-06T10:11:35.277Z,46.80
2019-03-06T10:16:38.258Z,48.80
2019-03-06T10:21:39.416Z,50.10
2019-03-06T10:26:40.511Z,50.30
2019-03-06T10:31:41.624Z,50.00
2019-03-06T10:36:42.851Z,51.00
2019-03-06T10:41:44.206Z,51.50
2019-03-06T10:46:45.841Z,50.50
2019-03-06T10:51:48.067Z,50.60
2019-03-06T10:56:49.403Z,50.50
2019-03-06T11:01:50.840Z,50.90
2019-03-06T11:06:52.326Z,51.70
2019-03-06T11:11:53.931Z,50.40
2019-03-06T11:16:55.363Z,49.40
2019-03-06T11:21:57.008Z,49.30
2019-03-06T11:26:58.522Z,48.00
2019-03-06T11:31:59.818Z,47.70
2019-03-06T11:37:01.252Z,47.30
2019-03-06T11:42:03.335Z,47.10
2019-03-06T11:47:04.770Z,46.90
2019-03-06T11:52:06.568Z,46.70
2019-03-06T11:57:08.081Z,46.70
2019-03-06T12:02:09.779Z,47.10
2019-03-06T12:07:11.275Z,48.30
2019-03-06T12:12:12.392Z,46.40
2019-03-06T12:17:13.804Z,45.20
2019-03-06T12:22:15.029Z,44.10
2019-03-06T12:27:16.242Z,44.00
2019-03-06T12:32:17.461Z,44.10
2019-03-06T12:37:18.784Z,44.40
2019-03-06T12:42:19.887Z,42.30
2019-03-06T12:47:21.475Z,41.50
2019-03-06T12:52:22.673Z,38.30
2019-03-06T12:57:23.797Z,35.60
2019-03-06T13:02:24.917Z,32.80
2019-03-06T13:07:26.112Z,31.90
2019-03-06T13:12:29.187Z,30.30
2019-03-06T13:17:30.630Z,27.40
2019-03-06T13:22:31.960Z,29.10
2019-03-06T13:27:33.262Z,28.20
2019-03-06T13:32:36.580Z,26.90
2019-03-06T13:37:37.782Z,26.00
2019-03-06T13:42:38.971Z,26.60
2019-03-06T13:47:40.260Z,28.40
2019-03-06T13:52:41.499Z,29.00
2019-03-06T13:57:44.437Z,31.80
2019-03-06T14:02:47.545Z,32.70
2019-03-06T14:07:56.012Z,33.00
2019-03-06T14:12:52.334Z,33.30
2019-03-06T14:17:53.662Z,34.40
2019-03-06T14:22:54.984Z,34.80
2019-03-06T14:27:56.085Z,36.80
2019-03-06T14:32:57.490Z,38.80
2019-03-06T14:37:58.904Z,38.90
2019-03-06T14:43:02.512Z,41.70
2019-03-06T14:48:04.535Z,42.60
2019-03-06T14:53:05.993Z,43.00
2019-03-06T14:58:07.400Z,43.50
2019-03-06T15:03:08.704Z,44.80
2019-03-06T15:08:10.109Z,45.40
2019-03-06T15:13:11.213Z,45.10
2019-03-06T15:18:12.519Z,46.50
2019-03-06T15:23:13.831Z,48.00
2019-03-06T15:28:15.149Z,49.30
2019-03-06T15:33:17.258Z,49.60
2019-03-06T15:38:18.565Z,49.30
2019-03-06T15:43:20.683Z,51.30
2019-03-06T15:48:21.892Z,52.20
2019-03-06T15:53:25.185Z,53.00
2019-03-06T15:58:26.165Z,53.40
2019-03-06T16:03:27.492Z,54.60
2019-03-06T16:08:28.867Z,55.70
2019-03-06T16:13:30.175Z,56.60
2019-03-06T16:18:31.480Z,56.90
2019-03-06T16:23:32.624Z,57.30
2019-03-06T16:28:33.860Z,59.40
2019-03-06T16:33:34.938Z,61.40
2019-03-06T16:38:36.040Z,63.80
2019-03-06T16:43:37.285Z,67.20
2019-03-06T16:48:38.459Z,72.50
2019-03-06T16:53:39.688Z,78.20
2019-03-06T16:58:40.788Z,83.40
2019-03-06T17:03:42.097Z,86.80
2019-03-06T17:08:43.414Z,93.70
2019-03-06T17:13:44.612Z,97.40
2019-03-06T17:18:45.907Z,99.90
2019-03-06T17:23:47.136Z,99.90
2019-03-06T17:28:48.541Z,99.90
2019-03-06T17:33:49.968Z,99.90
2019-03-06T17:38:51.191Z,99.90
2019-03-06T17:43:52.495Z,99.90
2019-03-06T17:48:53.802Z,99.90
2019-03-06T17:53:55.100Z,99.90
2019-03-06T17:58:56.720Z,99.90
2019-03-06T18:03:59.836Z,99.90
2019-03-06T18:09:01.057Z,99.90
2019-03-06T18:14:04.490Z,99.90
2019-03-06T18:19:05.590Z,99.90
2019-03-06T18:24:06.863Z,99.90
2019-03-06T18:29:08.176Z,99.90
2019-03-06T18:34:09.592Z,99.90
2019-03-06T18:39:12.621Z,99.90
2019-03-06T18:44:13.939Z,98.10
2019-03-06T18:49:15.268Z,97.30
2019-03-06T18:54:16.427Z,95.80
2019-03-06T18:59:17.653Z,95.00
2019-03-06T19:04:18.875Z,94.70
2019-03-06T19:09:20.095Z,96.90
2019-03-06T19:14:21.481Z,96.90
2019-03-06T19:19:22.860Z,96.60
2019-03-06T19:24:24.120Z,96.30
2019-03-06T19:29:25.418Z,96.70
2019-03-06T19:34:26.743Z,95.30
2019-03-06T19:39:27.949Z,90.30
2019-03-06T19:44:29.382Z,88.80
2019-03-06T19:49:30.601Z,90.00
2019-03-06T19:54:32.107Z,91.00
2019-03-06T19:59:33.324Z,89.30
2019-03-06T20:04:34.557Z,85.50
2019-03-06T20:09:35.907Z,80.70
2019-03-06T20:14:37.013Z,80.60
2019-03-06T20:19:38.225Z,77.30
2019-03-06T20:24:39.605Z,79.20
2019-03-06T20:29:41.012Z,79.00
2019-03-06T20:34:42.415Z,77.70
2019-03-06T20:39:43.735Z,74.20
2019-03-06T20:44:45.002Z,71.90
2019-03-06T20:49:46.209Z,66.30
2019-03-06T20:54:47.457Z,64.50
2019-03-06T20:59:48.735Z,58.10
2019-03-06T21:04:50.645Z,53.20
2019-03-06T21:09:51.848Z,50.10
2019-03-06T21:14:53.157Z,47.90
2019-03-06T21:19:54.375Z,47.50
2019-03-06T21:24:55.512Z,47.30
2019-03-06T21:29:56.757Z,45.70
2019-03-06T21:34:58.252Z,46.20
2019-03-06T21:39:59.627Z,45.30
2019-03-06T21:45:00.951Z,46.70
2019-03-06T21:50:05.993Z,47.20
2019-03-06T21:55:10.231Z,46.70
2019-03-06T22:00:20.412Z,47.50
2019-03-06T22:05:21.637Z,47.20
2019-03-06T22:10:22.951Z,47.80
2019-03-06T22:15:24.139Z,49.10
2019-03-06T22:20:25.338Z,49.20
2019-03-06T22:25:26.573Z,49.80
2019-03-06T22:30:27.860Z,49.90
2019-03-06T22:35:28.964Z,49.30
2019-03-06T22:40:30.353Z,48.00
2019-03-06T22:45:31.460Z,48.60
2019-03-06T22:50:32.559Z,49.50
2019-03-06T22:55:33.871Z,50.80
2019-03-06T23:00:57.305Z,51.40
2019-03-06T23:05:58.603Z,50.50
2019-03-06T23:10:59.903Z,49.80
2019-03-06T23:16:01.103Z,50.90
2019-03-06T23:21:02.309Z,52.60
2019-03-06T23:26:03.529Z,53.20
2019-03-06T23:31:04.643Z,54.30
2019-03-06T23:36:05.900Z,56.20
2019-03-06T23:41:07.327Z,57.10
2019-03-06T23:46:08.431Z,57.60
2019-03-06T23:51:11.519Z,56.10
2019-03-06T23:56:12.640Z,55.10
